sensor_id;sensor_type;location;lat;lon;timestamp;P1;durP1;ratioP1;P2;durP2;ratioP2
22632;SDS011;11483;55.828;37.488;2023-05-10T00:00:08;3.75;;;2.85;;
22632;SDS011;11483;55.828;37.488;2023-05-10T00:02:52;8.35;;;2.65;;
22632;SDS011;11483;55.828;37.488;2023-05-10T00:06:24;4.47;;;3.00;;
22632;SDS011;11483;55.828;37.488;2023-05-10T00:09:23;5.03;;;2.80;;
22632;SDS011;11483;55.828;37.488;2023-05-10T00:12:49;9.13;;;3.17;;
22632;SDS011;11483;55.828;37.488;2023-05-10T00:15:42;7.72;;;3.28;;
22632;SDS011;11483;55.828;37.488;2023-05-10T00:18:08;5.75;;;3.42;;
22632;SDS011;11483;55.828;37.488;2023-05-10T00:20:33;10.88;;;5.05;;
22632;SDS011;11483;55.828;37.488;2023-05-10T00:22:59;9.05;;;5.03;;
22632;SDS011;11483;55.828;37.488;2023-05-10T00:25:25;8.30;;;4.53;;
22632;SDS011;11483;55.828;37.488;2023-05-10T00:27:51;11.65;;;3.72;;
22632;SDS011;11483;55.828;37.488;2023-05-10T00:30:17;12.70;;;3.38;;
22632;SDS011;11483;55.828;37.488;2023-05-10T00:32:43;13.30;;;4.47;;
22632;SDS011;11483;55.828;37.488;2023-05-10T00:35:09;8.38;;;4.18;;
22632;SDS011;11483;55.828;37.488;2023-05-10T00:37:36;13.27;;;4.22;;
22632;SDS011;11483;55.828;37.488;2023-05-10T00:40:01;8.05;;;3.60;;
22632;SDS011;11483;55.828;37.488;2023-05-10T00:42:27;7.00;;;4.32;;
22632;SDS011;11483;55.828;37.488;2023-05-10T00:44:53;12.57;;;5.30;;
22632;SDS011;11483;55.828;37.488;2023-05-10T00:47:19;10.27;;;5.50;;
22632;SDS011;11483;55.828;37.488;2023-05-10T00:49:45;11.57;;;5.88;;
22632;SDS011;11483;55.828;37.488;2023-05-10T00:52:11;10.18;;;5.55;;
22632;SDS011;11483;55.828;37.488;2023-05-10T00:54:37;10.93;;;5.50;;
22632;SDS011;11483;55.828;37.488;2023-05-10T00:57:03;12.82;;;6.28;;
22632;SDS011;11483;55.828;37.488;2023-05-10T00:59:29;15.70;;;5.70;;
22632;SDS011;11483;55.828;37.488;2023-05-10T01:01:55;21.33;;;6.60;;
22632;SDS011;11483;55.828;37.488;2023-05-10T01:04:22;11.05;;;5.78;;
22632;SDS011;11483;55.828;37.488;2023-05-10T01:06:51;20.75;;;5.25;;
22632;SDS011;11483;55.828;37.488;2023-05-10T01:09:18;13.57;;;5.75;;
22632;SDS011;11483;55.828;37.488;2023-05-10T01:11:45;14.18;;;6.50;;
22632;SDS011;11483;55.828;37.488;2023-05-10T01:14:11;15.60;;;6.47;;
22632;SDS011;11483;55.828;37.488;2023-05-10T01:16:38;14.68;;;5.53;;
22632;SDS011;11483;55.828;37.488;2023-05-10T01:19:25;13.70;;;6.53;;
22632;SDS011;11483;55.828;37.488;2023-05-10T01:38:17;12.70;;;6.65;;
22632;SDS011;11483;55.828;37.488;2023-05-10T01:43:42;12.27;;;6.20;;
22632;SDS011;11483;55.828;37.488;2023-05-10T01:46:23;12.65;;;5.43;;
22632;SDS011;11483;55.828;37.488;2023-05-10T01:48:54;13.35;;;6.85;;
22632;SDS011;11483;55.828;37.488;2023-05-10T01:51:23;12.77;;;6.38;;
22632;SDS011;11483;55.828;37.488;2023-05-10T01:53:51;10.43;;;5.88;;
22632;SDS011;11483;55.828;37.488;2023-05-10T01:56:24;13.68;;;7.57;;
22632;SDS011;11483;55.828;37.488;2023-05-10T01:58:53;24.00;;;7.60;;
22632;SDS011;11483;55.828;37.488;2023-05-10T02:01:20;12.10;;;6.45;;
22632;SDS011;11483;55.828;37.488;2023-05-10T02:03:47;14.27;;;6.35;;
22632;SDS011;11483;55.828;37.488;2023-05-10T02:06:16;18.73;;;6.80;;
22632;SDS011;11483;55.828;37.488;2023-05-10T02:08:45;13.60;;;5.82;;
22632;SDS011;11483;55.828;37.488;2023-05-10T02:11:12;13.05;;;5.57;;
22632;SDS011;11483;55.828;37.488;2023-05-10T02:13:39;16.92;;;6.05;;
22632;SDS011;11483;55.828;37.488;2023-05-10T02:16:06;15.65;;;6.00;;
22632;SDS011;11483;55.828;37.488;2023-05-10T02:18:33;14.80;;;6.85;;
22632;SDS011;11483;55.828;37.488;2023-05-10T02:21:01;16.35;;;7.57;;
22632;SDS011;11483;55.828;37.488;2023-05-10T02:23:28;16.52;;;7.28;;
22632;SDS011;11483;55.828;37.488;2023-05-10T02:25:56;15.77;;;6.90;;
22632;SDS011;11483;55.828;37.488;2023-05-10T02:28:24;13.68;;;6.85;;
22632;SDS011;11483;55.828;37.488;2023-05-10T02:30:51;14.95;;;6.32;;
22632;SDS011;11483;55.828;37.488;2023-05-10T02:33:18;15.00;;;6.22;;
22632;SDS011;11483;55.828;37.488;2023-05-10T02:35:45;18.85;;;6.68;;
22632;SDS011;11483;55.828;37.488;2023-05-10T02:38:12;15.80;;;6.38;;
22632;SDS011;11483;55.828;37.488;2023-05-10T02:40:40;17.42;;;5.95;;
22632;SDS011;11483;55.828;37.488;2023-05-10T02:43:09;24.55;;;6.80;;
22632;SDS011;11483;55.828;37.488;2023-05-10T02:45:39;16.50;;;6.43;;
22632;SDS011;11483;55.828;37.488;2023-05-10T02:48:06;15.82;;;6.45;;
22632;SDS011;11483;55.828;37.488;2023-05-10T02:50:33;13.32;;;6.13;;
22632;SDS011;11483;55.828;37.488;2023-05-10T02:53:00;24.30;;;6.43;;
22632;SDS011;11483;55.828;37.488;2023-05-10T02:55:35;13.57;;;6.55;;
22632;SDS011;11483;55.828;37.488;2023-05-10T02:58:03;20.35;;;6.78;;
22632;SDS011;11483;55.828;37.488;2023-05-10T03:00:29;15.32;;;6.57;;
22632;SDS011;11483;55.828;37.488;2023-05-10T03:02:56;9.05;;;4.68;;
22632;SDS011;11483;55.828;37.488;2023-05-10T03:05:22;11.05;;;4.60;;
22632;SDS011;11483;55.828;37.488;2023-05-10T03:07:48;7.65;;;4.18;;
22632;SDS011;11483;55.828;37.488;2023-05-10T03:10:15;14.02;;;5.68;;
22632;SDS011;11483;55.828;37.488;2023-05-10T03:13:02;18.58;;;6.75;;
22632;SDS011;11483;55.828;37.488;2023-05-10T03:18:21;21.52;;;7.00;;
22632;SDS011;11483;55.828;37.488;2023-05-10T03:20:59;14.60;;;7.00;;
22632;SDS011;11483;55.828;37.488;2023-05-10T03:23:59;18.30;;;6.57;;
22632;SDS011;11483;55.828;37.488;2023-05-10T03:27:22;16.23;;;6.32;;
22632;SDS011;11483;55.828;37.488;2023-05-10T03:30:08;12.50;;;6.00;;
22632;SDS011;11483;55.828;37.488;2023-05-10T03:32:45;18.17;;;5.85;;
22632;SDS011;11483;55.828;37.488;2023-05-10T03:35:12;14.55;;;6.22;;
22632;SDS011;11483;55.828;37.488;2023-05-10T03:37:40;9.20;;;4.93;;
22632;SDS011;11483;55.828;37.488;2023-05-10T03:40:06;15.45;;;5.35;;
22632;SDS011;11483;55.828;37.488;2023-05-10T03:42:33;13.93;;;6.00;;
22632;SDS011;11483;55.828;37.488;2023-05-10T03:44:59;13.88;;;5.25;;
22632;SDS011;11483;55.828;37.488;2023-05-10T03:47:25;13.85;;;4.95;;
22632;SDS011;11483;55.828;37.488;2023-05-10T03:49:51;12.93;;;6.10;;
22632;SDS011;11483;55.828;37.488;2023-05-10T03:52:17;10.82;;;5.03;;
22632;SDS011;11483;55.828;37.488;2023-05-10T03:54:43;19.63;;;5.93;;
22632;SDS011;11483;55.828;37.488;2023-05-10T03:57:09;10.25;;;5.35;;
22632;SDS011;11483;55.828;37.488;2023-05-10T03:59:34;12.43;;;5.22;;
22632;SDS011;11483;55.828;37.488;2023-05-10T04:02:00;10.30;;;4.03;;
22632;SDS011;11483;55.828;37.488;2023-05-10T04:04:26;10.60;;;4.22;;
22632;SDS011;11483;55.828;37.488;2023-05-10T04:06:52;12.05;;;4.45;;
22632;SDS011;11483;55.828;37.488;2023-05-10T04:09:20;9.57;;;4.40;;
22632;SDS011;11483;55.828;37.488;2023-05-10T04:11:46;13.13;;;4.43;;
22632;SDS011;11483;55.828;37.488;2023-05-10T04:14:11;14.68;;;4.30;;
22632;SDS011;11483;55.828;37.488;2023-05-10T04:16:37;7.43;;;3.75;;
22632;SDS011;11483;55.828;37.488;2023-05-10T04:19:03;10.93;;;4.53;;
22632;SDS011;11483;55.828;37.488;2023-05-10T04:21:29;14.60;;;5.53;;
22632;SDS011;11483;55.828;37.488;2023-05-10T04:23:55;15.63;;;4.60;;
22632;SDS011;11483;55.828;37.488;2023-05-10T04:26:21;16.60;;;5.50;;
22632;SDS011;11483;55.828;37.488;2023-05-10T04:28:47;11.75;;;4.63;;
22632;SDS011;11483;55.828;37.488;2023-05-10T04:31:13;11.93;;;4.72;;
22632;SDS011;11483;55.828;37.488;2023-05-10T04:33:39;13.10;;;5.65;;
22632;SDS011;11483;55.828;37.488;2023-05-10T04:36:05;11.73;;;5.50;;
22632;SDS011;11483;55.828;37.488;2023-05-10T04:38:31;17.08;;;4.40;;
22632;SDS011;11483;55.828;37.488;2023-05-10T04:41:04;19.55;;;6.53;;
22632;SDS011;11483;55.828;37.488;2023-05-10T04:43:33;20.48;;;5.97;;
22632;SDS011;11483;55.828;37.488;2023-05-10T04:46:00;23.95;;;5.47;;
22632;SDS011;11483;55.828;37.488;2023-05-10T04:48:25;13.15;;;6.18;;
22632;SDS011;11483;55.828;37.488;2023-05-10T04:50:52;14.80;;;4.50;;
22632;SDS011;11483;55.828;37.488;2023-05-10T04:53:17;19.23;;;5.05;;
22632;SDS011;11483;55.828;37.488;2023-05-10T04:55:43;11.50;;;5.57;;
22632;SDS011;11483;55.828;37.488;2023-05-10T04:58:09;21.95;;;6.50;;
22632;SDS011;11483;55.828;37.488;2023-05-10T05:00:35;14.20;;;5.07;;
22632;SDS011;11483;55.828;37.488;2023-05-10T05:03:00;14.57;;;5.65;;
22632;SDS011;11483;55.828;37.488;2023-05-10T05:05:26;17.73;;;5.88;;
22632;SDS011;11483;55.828;37.488;2023-05-10T05:07:52;11.50;;;5.72;;
22632;SDS011;11483;55.828;37.488;2023-05-10T05:10:18;15.05;;;6.38;;
22632;SDS011;11483;55.828;37.488;2023-05-10T05:12:44;19.45;;;5.85;;
22632;SDS011;11483;55.828;37.488;2023-05-10T05:15:10;14.93;;;5.95;;
22632;SDS011;11483;55.828;37.488;2023-05-10T05:17:36;15.75;;;6.28;;
22632;SDS011;11483;55.828;37.488;2023-05-10T05:20:02;12.60;;;6.55;;
22632;SDS011;11483;55.828;37.488;2023-05-10T05:22:28;14.88;;;5.55;;
22632;SDS011;11483;55.828;37.488;2023-05-10T05:24:55;16.42;;;6.65;;
22632;SDS011;11483;55.828;37.488;2023-05-10T05:27:21;11.35;;;6.03;;
22632;SDS011;11483;55.828;37.488;2023-05-10T05:29:52;19.23;;;5.88;;
22632;SDS011;11483;55.828;37.488;2023-05-10T05:32:19;18.75;;;6.45;;
22632;SDS011;11483;55.828;37.488;2023-05-10T05:34:45;19.00;;;6.05;;
22632;SDS011;11483;55.828;37.488;2023-05-10T05:37:14;15.93;;;6.18;;
22632;SDS011;11483;55.828;37.488;2023-05-10T05:39:41;17.90;;;5.78;;
22632;SDS011;11483;55.828;37.488;2023-05-10T05:42:07;16.33;;;6.88;;
22632;SDS011;11483;55.828;37.488;2023-05-10T05:44:34;20.60;;;6.40;;
22632;SDS011;11483;55.828;37.488;2023-05-10T05:47:00;16.73;;;7.00;;
22632;SDS011;11483;55.828;37.488;2023-05-10T05:49:26;15.88;;;6.43;;
22632;SDS011;11483;55.828;37.488;2023-05-10T05:51:52;13.00;;;6.40;;
22632;SDS011;11483;55.828;37.488;2023-05-10T05:54:18;23.25;;;6.22;;
22632;SDS011;11483;55.828;37.488;2023-05-10T05:56:43;13.35;;;5.70;;
22632;SDS011;11483;55.828;37.488;2023-05-10T06:01:35;28.58;;;6.55;;
22632;SDS011;11483;55.828;37.488;2023-05-10T06:04:01;17.58;;;6.32;;
22632;SDS011;11483;55.828;37.488;2023-05-10T06:06:27;23.15;;;7.22;;
22632;SDS011;11483;55.828;37.488;2023-05-10T06:08:53;20.90;;;6.20;;
22632;SDS011;11483;55.828;37.488;2023-05-10T06:11:19;18.27;;;6.20;;
22632;SDS011;11483;55.828;37.488;2023-05-10T06:13:46;17.13;;;6.03;;
22632;SDS011;11483;55.828;37.488;2023-05-10T06:16:12;16.83;;;6.00;;
22632;SDS011;11483;55.828;37.488;2023-05-10T06:18:38;16.52;;;6.18;;
22632;SDS011;11483;55.828;37.488;2023-05-10T06:21:04;13.10;;;6.00;;
22632;SDS011;11483;55.828;37.488;2023-05-10T06:23:30;14.77;;;5.57;;
22632;SDS011;11483;55.828;37.488;2023-05-10T06:25:56;12.75;;;5.40;;
22632;SDS011;11483;55.828;37.488;2023-05-10T06:28:22;15.17;;;6.00;;
22632;SDS011;11483;55.828;37.488;2023-05-10T06:30:48;14.20;;;5.50;;
22632;SDS011;11483;55.828;37.488;2023-05-10T06:33:14;12.63;;;4.87;;
22632;SDS011;11483;55.828;37.488;2023-05-10T06:36:22;15.48;;;5.30;;
22632;SDS011;11483;55.828;37.488;2023-05-10T06:39:11;15.40;;;4.28;;
22632;SDS011;11483;55.828;37.488;2023-05-10T06:41:49;13.02;;;5.00;;
22632;SDS011;11483;55.828;37.488;2023-05-10T06:45:13;16.48;;;4.60;;
22632;SDS011;11483;55.828;37.488;2023-05-10T06:47:42;13.27;;;5.07;;
22632;SDS011;11483;55.828;37.488;2023-05-10T06:50:08;14.82;;;4.57;;
22632;SDS011;11483;55.828;37.488;2023-05-10T06:52:34;16.77;;;4.78;;
22632;SDS011;11483;55.828;37.488;2023-05-10T06:55:01;13.23;;;4.28;;
22632;SDS011;11483;55.828;37.488;2023-05-10T06:57:27;19.00;;;4.00;;
22632;SDS011;11483;55.828;37.488;2023-05-10T06:59:53;19.00;;;4.65;;
22632;SDS011;11483;55.828;37.488;2023-05-10T07:02:21;18.30;;;4.15;;
22632;SDS011;11483;55.828;37.488;2023-05-10T07:04:47;19.25;;;4.57;;
22632;SDS011;11483;55.828;37.488;2023-05-10T07:07:14;15.55;;;3.92;;
22632;SDS011;11483;55.828;37.488;2023-05-10T07:09:40;9.18;;;4.40;;
22632;SDS011;11483;55.828;37.488;2023-05-10T07:12:06;13.93;;;4.05;;
22632;SDS011;11483;55.828;37.488;2023-05-10T07:14:31;14.20;;;4.85;;
22632;SDS011;11483;55.828;37.488;2023-05-10T07:16:57;20.42;;;4.38;;
22632;SDS011;11483;55.828;37.488;2023-05-10T07:19:23;9.48;;;4.03;;
22632;SDS011;11483;55.828;37.488;2023-05-10T07:21:49;17.45;;;4.68;;
22632;SDS011;11483;55.828;37.488;2023-05-10T07:24:15;14.88;;;3.67;;
22632;SDS011;11483;55.828;37.488;2023-05-10T07:26:41;13.32;;;3.80;;
22632;SDS011;11483;55.828;37.488;2023-05-10T07:29:07;9.10;;;3.63;;
22632;SDS011;11483;55.828;37.488;2023-05-10T07:31:33;9.32;;;3.88;;
22632;SDS011;11483;55.828;37.488;2023-05-10T07:33:59;13.45;;;4.03;;
22632;SDS011;11483;55.828;37.488;2023-05-10T07:36:25;19.08;;;4.40;;
22632;SDS011;11483;55.828;37.488;2023-05-10T07:38:51;14.90;;;3.40;;
22632;SDS011;11483;55.828;37.488;2023-05-10T07:41:17;10.77;;;3.95;;
22632;SDS011;11483;55.828;37.488;2023-05-10T07:43:43;14.90;;;3.85;;
22632;SDS011;11483;55.828;37.488;2023-05-10T07:46:09;10.30;;;3.05;;
22632;SDS011;11483;55.828;37.488;2023-05-10T07:48:36;6.35;;;2.80;;
22632;SDS011;11483;55.828;37.488;2023-05-10T07:51:02;9.40;;;2.92;;
22632;SDS011;11483;55.828;37.488;2023-05-10T07:53:28;9.95;;;3.53;;
22632;SDS011;11483;55.828;37.488;2023-05-10T07:55:54;17.67;;;3.72;;
22632;SDS011;11483;55.828;37.488;2023-05-10T07:58:25;8.18;;;3.45;;
22632;SDS011;11483;55.828;37.488;2023-05-10T08:00:51;10.13;;;3.22;;
22632;SDS011;11483;55.828;37.488;2023-05-10T08:03:17;6.45;;;2.83;;
22632;SDS011;11483;55.828;37.488;2023-05-10T08:05:43;4.82;;;2.97;;
22632;SDS011;11483;55.828;37.488;2023-05-10T08:08:09;4.50;;;2.33;;
22632;SDS011;11483;55.828;37.488;2023-05-10T08:10:35;9.13;;;3.00;;
22632;SDS011;11483;55.828;37.488;2023-05-10T08:13:01;8.02;;;2.50;;
22632;SDS011;11483;55.828;37.488;2023-05-10T08:15:27;6.72;;;2.50;;
22632;SDS011;11483;55.828;37.488;2023-05-10T08:17:52;4.82;;;2.22;;
22632;SDS011;11483;55.828;37.488;2023-05-10T08:20:19;14.18;;;2.50;;
22632;SDS011;11483;55.828;37.488;2023-05-10T08:22:45;7.30;;;3.03;;
22632;SDS011;11483;55.828;37.488;2023-05-10T08:25:11;5.55;;;2.00;;
22632;SDS011;11483;55.828;37.488;2023-05-10T08:27:37;10.70;;;1.85;;
22632;SDS011;11483;55.828;37.488;2023-05-10T08:30:03;4.60;;;1.98;;
22632;SDS011;11483;55.828;37.488;2023-05-10T08:32:30;5.00;;;2.00;;
22632;SDS011;11483;55.828;37.488;2023-05-10T08:34:56;3.33;;;2.13;;
22632;SDS011;11483;55.828;37.488;2023-05-10T08:37:23;3.20;;;1.65;;
22632;SDS011;11483;55.828;37.488;2023-05-10T08:39:49;7.78;;;1.88;;
22632;SDS011;11483;55.828;37.488;2023-05-10T08:47:11;8.23;;;2.00;;
22632;SDS011;11483;55.828;37.488;2023-05-10T08:49:40;5.32;;;1.98;;
22632;SDS011;11483;55.828;37.488;2023-05-10T08:52:06;5.88;;;1.70;;
22632;SDS011;11483;55.828;37.488;2023-05-10T08:54:33;4.38;;;2.00;;
22632;SDS011;11483;55.828;37.488;2023-05-10T08:56:59;2.85;;;1.70;;
22632;SDS011;11483;55.828;37.488;2023-05-10T08:59:25;3.30;;;1.50;;
22632;SDS011;11483;55.828;37.488;2023-05-10T09:01:52;3.28;;;1.60;;
22632;SDS011;11483;55.828;37.488;2023-05-10T09:04:22;2.80;;;1.38;;
22632;SDS011;11483;55.828;37.488;2023-05-10T09:09:14;5.13;;;1.60;;
22632;SDS011;11483;55.828;37.488;2023-05-10T09:14:07;3.63;;;1.23;;
22632;SDS011;11483;55.828;37.488;2023-05-10T09:16:34;2.83;;;1.55;;
22632;SDS011;11483;55.828;37.488;2023-05-10T09:19:00;3.05;;;1.60;;
22632;SDS011;11483;55.828;37.488;2023-05-10T09:21:26;4.68;;;2.03;;
22632;SDS011;11483;55.828;37.488;2023-05-10T09:23:52;3.67;;;1.85;;
22632;SDS011;11483;55.828;37.488;2023-05-10T09:26:23;4.63;;;2.13;;
22632;SDS011;11483;55.828;37.488;2023-05-10T09:28:52;3.70;;;2.05;;
22632;SDS011;11483;55.828;37.488;2023-05-10T09:31:23;4.15;;;1.92;;
22632;SDS011;11483;55.828;37.488;2023-05-10T09:33:50;5.00;;;2.53;;
22632;SDS011;11483;55.828;37.488;2023-05-10T09:36:17;5.55;;;2.45;;
22632;SDS011;11483;55.828;37.488;2023-05-10T09:38:50;5.45;;;2.08;;
22632;SDS011;11483;55.828;37.488;2023-05-10T09:41:18;5.45;;;1.95;;
22632;SDS011;11483;55.828;37.488;2023-05-10T09:43:45;6.47;;;2.60;;
22632;SDS011;11483;55.828;37.488;2023-05-10T09:46:11;5.50;;;1.92;;
22632;SDS011;11483;55.828;37.488;2023-05-10T09:48:46;6.57;;;2.22;;
22632;SDS011;11483;55.828;37.488;2023-05-10T09:51:19;8.68;;;2.22;;
22632;SDS011;11483;55.828;37.488;2023-05-10T09:53:45;7.80;;;2.45;;
22632;SDS011;11483;55.828;37.488;2023-05-10T09:56:11;7.27;;;2.40;;
22632;SDS011;11483;55.828;37.488;2023-05-10T09:58:46;10.63;;;2.30;;
22632;SDS011;11483;55.828;37.488;2023-05-10T10:01:29;6.25;;;2.00;;
22632;SDS011;11483;55.828;37.488;2023-05-10T10:03:56;9.07;;;2.40;;
22632;SDS011;11483;55.828;37.488;2023-05-10T10:06:23;5.80;;;2.20;;
22632;SDS011;11483;55.828;37.488;2023-05-10T10:08:50;9.13;;;2.00;;
22632;SDS011;11483;55.828;37.488;2023-05-10T10:11:16;4.95;;;2.20;;
22632;SDS011;11483;55.828;37.488;2023-05-10T10:13:43;6.25;;;2.05;;
22632;SDS011;11483;55.828;37.488;2023-05-10T10:16:09;6.22;;;2.08;;
22632;SDS011;11483;55.828;37.488;2023-05-10T10:18:35;3.35;;;1.73;;
22632;SDS011;11483;55.828;37.488;2023-05-10T10:21:08;4.85;;;2.08;;
22632;SDS011;11483;55.828;37.488;2023-05-10T10:23:36;11.98;;;2.45;;
22632;SDS011;11483;55.828;37.488;2023-05-10T10:26:03;2.83;;;1.83;;
22632;SDS011;11483;55.828;37.488;2023-05-10T10:28:39;7.55;;;1.70;;
22632;SDS011;11483;55.828;37.488;2023-05-10T10:34:05;3.83;;;1.70;;
22632;SDS011;11483;55.828;37.488;2023-05-10T10:37:06;9.05;;;2.40;;
22632;SDS011;11483;55.828;37.488;2023-05-10T10:39:29;8.48;;;1.85;;
22632;SDS011;11483;55.828;37.488;2023-05-10T10:41:56;5.28;;;2.22;;
22632;SDS011;11483;55.828;37.488;2023-05-10T10:47:05;2.50;;;1.80;;
22632;SDS011;11483;55.828;37.488;2023-05-10T10:49:48;4.45;;;1.70;;
22632;SDS011;11483;55.828;37.488;2023-05-10T10:57:48;2.63;;;1.85;;
22632;SDS011;11483;55.828;37.488;2023-05-10T11:02:57;8.23;;;2.03;;
22632;SDS011;11483;55.828;37.488;2023-05-10T11:08:14;8.38;;;2.10;;
22632;SDS011;11483;55.828;37.488;2023-05-10T11:16:27;3.03;;;2.05;;
22632;SDS011;11483;55.828;37.488;2023-05-10T11:19:12;2.90;;;1.90;;
22632;SDS011;11483;55.828;37.488;2023-05-10T11:24:38;8.32;;;1.77;;
22632;SDS011;11483;55.828;37.488;2023-05-10T11:27:05;3.35;;;1.75;;
22632;SDS011;11483;55.828;37.488;2023-05-10T11:29:31;6.43;;;2.17;;
22632;SDS011;11483;55.828;37.488;2023-05-10T11:31:57;2.92;;;1.38;;
22632;SDS011;11483;55.828;37.488;2023-05-10T11:34:24;2.13;;;1.48;;
22632;SDS011;11483;55.828;37.488;2023-05-10T11:36:52;8.65;;;2.10;;
22632;SDS011;11483;55.828;37.488;2023-05-10T11:39:20;5.47;;;2.10;;
22632;SDS011;11483;55.828;37.488;2023-05-10T11:41:49;7.63;;;1.60;;
22632;SDS011;11483;55.828;37.488;2023-05-10T11:44:15;4.82;;;1.98;;
22632;SDS011;11483;55.828;37.488;2023-05-10T11:46:41;5.75;;;1.95;;
22632;SDS011;11483;55.828;37.488;2023-05-10T11:49:07;4.63;;;1.80;;
22632;SDS011;11483;55.828;37.488;2023-05-10T11:51:36;5.15;;;1.70;;
22632;SDS011;11483;55.828;37.488;2023-05-10T11:54:07;6.50;;;2.00;;
22632;SDS011;11483;55.828;37.488;2023-05-10T11:56:34;2.70;;;1.80;;
22632;SDS011;11483;55.828;37.488;2023-05-10T11:59:01;2.67;;;1.77;;
22632;SDS011;11483;55.828;37.488;2023-05-10T12:01:28;4.10;;;1.63;;
22632;SDS011;11483;55.828;37.488;2023-05-10T12:03:55;5.70;;;2.47;;
22632;SDS011;11483;55.828;37.488;2023-05-10T12:06:30;5.15;;;1.60;;
22632;SDS011;11483;55.828;37.488;2023-05-10T12:08:57;9.48;;;1.98;;
22632;SDS011;11483;55.828;37.488;2023-05-10T12:11:27;4.57;;;1.88;;
22632;SDS011;11483;55.828;37.488;2023-05-10T12:13:54;2.70;;;1.88;;
22632;SDS011;11483;55.828;37.488;2023-05-10T12:16:25;4.47;;;1.77;;
22632;SDS011;11483;55.828;37.488;2023-05-10T12:18:55;5.13;;;1.95;;
22632;SDS011;11483;55.828;37.488;2023-05-10T12:21:22;2.67;;;1.88;;
22632;SDS011;11483;55.828;37.488;2023-05-10T12:23:52;4.80;;;2.00;;
22632;SDS011;11483;55.828;37.488;2023-05-10T12:26:24;4.32;;;1.80;;
22632;SDS011;11483;55.828;37.488;2023-05-10T12:28:52;5.80;;;2.30;;
22632;SDS011;11483;55.828;37.488;2023-05-10T12:31:19;5.72;;;1.90;;
22632;SDS011;11483;55.828;37.488;2023-05-10T12:33:45;9.35;;;2.45;;
22632;SDS011;11483;55.828;37.488;2023-05-10T12:36:13;9.43;;;2.03;;
22632;SDS011;11483;55.828;37.488;2023-05-10T12:38:46;5.90;;;1.95;;
22632;SDS011;11483;55.828;37.488;2023-05-10T12:41:15;6.45;;;2.10;;
22632;SDS011;11483;55.828;37.488;2023-05-10T12:43:42;15.65;;;2.83;;
22632;SDS011;11483;55.828;37.488;2023-05-10T12:46:12;4.85;;;1.80;;
22632;SDS011;11483;55.828;37.488;2023-05-10T12:48:42;5.07;;;1.98;;
22632;SDS011;11483;55.828;37.488;2023-05-10T12:51:08;27.33;;;3.38;;
22632;SDS011;11483;55.828;37.488;2023-05-10T12:53:41;4.10;;;1.92;;
22632;SDS011;11483;55.828;37.488;2023-05-10T12:56:06;8.55;;;2.22;;
22632;SDS011;11483;55.828;37.488;2023-05-10T12:58:32;3.58;;;2.10;;
22632;SDS011;11483;55.828;37.488;2023-05-10T13:00:59;10.80;;;1.98;;
22632;SDS011;11483;55.828;37.488;2023-05-10T13:03:25;4.78;;;1.77;;
22632;SDS011;11483;55.828;37.488;2023-05-10T13:05:51;6.53;;;1.90;;
22632;SDS011;11483;55.828;37.488;2023-05-10T13:08:17;4.07;;;2.00;;
22632;SDS011;11483;55.828;37.488;2023-05-10T13:13:35;4.72;;;1.70;;
22632;SDS011;11483;55.828;37.488;2023-05-10T13:16:07;4.68;;;2.17;;
22632;SDS011;11483;55.828;37.488;2023-05-10T13:19:33;4.78;;;1.88;;
22632;SDS011;11483;55.828;37.488;2023-05-10T13:22:11;7.97;;;2.35;;
22632;SDS011;11483;55.828;37.488;2023-05-10T13:24:45;3.47;;;1.80;;
22632;SDS011;11483;55.828;37.488;2023-05-10T13:27:11;4.10;;;1.77;;
22632;SDS011;11483;55.828;37.488;2023-05-10T13:29:37;4.82;;;1.75;;
22632;SDS011;11483;55.828;37.488;2023-05-10T13:32:03;5.63;;;2.25;;
22632;SDS011;11483;55.828;37.488;2023-05-10T13:34:28;6.70;;;2.15;;
22632;SDS011;11483;55.828;37.488;2023-05-10T13:36:54;4.70;;;2.03;;
22632;SDS011;11483;55.828;37.488;2023-05-10T13:39:21;3.08;;;2.20;;
22632;SDS011;11483;55.828;37.488;2023-05-10T13:41:47;3.25;;;1.80;;
22632;SDS011;11483;55.828;37.488;2023-05-10T13:44:13;4.63;;;1.60;;
22632;SDS011;11483;55.828;37.488;2023-05-10T13:46:40;6.90;;;2.50;;
22632;SDS011;11483;55.828;37.488;2023-05-10T13:49:08;10.32;;;2.33;;
22632;SDS011;11483;55.828;37.488;2023-05-10T13:51:34;4.97;;;2.08;;
22632;SDS011;11483;55.828;37.488;2023-05-10T13:54:01;8.07;;;2.50;;
22632;SDS011;11483;55.828;37.488;2023-05-10T13:56:27;5.00;;;1.85;;
22632;SDS011;11483;55.828;37.488;2023-05-10T13:58:53;8.27;;;1.67;;
22632;SDS011;11483;55.828;37.488;2023-05-10T14:01:19;3.70;;;2.08;;
22632;SDS011;11483;55.828;37.488;2023-05-10T14:03:45;6.75;;;1.98;;
22632;SDS011;11483;55.828;37.488;2023-05-10T14:06:11;4.05;;;1.70;;
22632;SDS011;11483;55.828;37.488;2023-05-10T14:08:37;8.55;;;1.80;;
22632;SDS011;11483;55.828;37.488;2023-05-10T14:11:03;8.98;;;1.88;;
22632;SDS011;11483;55.828;37.488;2023-05-10T14:13:29;9.60;;;2.08;;
22632;SDS011;11483;55.828;37.488;2023-05-10T14:15:54;4.95;;;2.03;;
22632;SDS011;11483;55.828;37.488;2023-05-10T14:18:20;7.88;;;2.30;;
22632;SDS011;11483;55.828;37.488;2023-05-10T14:20:46;10.60;;;2.75;;
22632;SDS011;11483;55.828;37.488;2023-05-10T14:23:12;4.50;;;2.20;;
22632;SDS011;11483;55.828;37.488;2023-05-10T14:25:39;8.77;;;2.40;;
22632;SDS011;11483;55.828;37.488;2023-05-10T14:28:05;3.75;;;2.22;;
22632;SDS011;11483;55.828;37.488;2023-05-10T14:30:31;3.55;;;1.95;;
22632;SDS011;11483;55.828;37.488;2023-05-10T14:32:59;5.78;;;1.92;;
22632;SDS011;11483;55.828;37.488;2023-05-10T14:35:26;7.53;;;2.67;;
22632;SDS011;11483;55.828;37.488;2023-05-10T14:37:52;5.07;;;2.40;;
22632;SDS011;11483;55.828;37.488;2023-05-10T14:40:18;9.95;;;2.58;;
22632;SDS011;11483;55.828;37.488;2023-05-10T14:42:44;7.30;;;3.00;;
22632;SDS011;11483;55.828;37.488;2023-05-10T14:45:10;5.88;;;2.15;;
22632;SDS011;11483;55.828;37.488;2023-05-10T14:47:37;4.80;;;2.10;;
22632;SDS011;11483;55.828;37.488;2023-05-10T14:50:03;3.10;;;2.13;;
22632;SDS011;11483;55.828;37.488;2023-05-10T14:52:29;8.07;;;2.35;;
22632;SDS011;11483;55.828;37.488;2023-05-10T14:54:55;14.15;;;2.28;;
22632;SDS011;11483;55.828;37.488;2023-05-10T14:57:20;6.57;;;2.38;;
22632;SDS011;11483;55.828;37.488;2023-05-10T14:59:46;4.13;;;2.20;;
22632;SDS011;11483;55.828;37.488;2023-05-10T15:02:13;6.65;;;2.72;;
22632;SDS011;11483;55.828;37.488;2023-05-10T15:04:38;7.65;;;2.33;;
22632;SDS011;11483;55.828;37.488;2023-05-10T15:07:04;6.53;;;2.97;;
22632;SDS011;11483;55.828;37.488;2023-05-10T15:09:30;3.10;;;2.13;;
22632;SDS011;11483;55.828;37.488;2023-05-10T15:11:57;9.88;;;2.97;;
22632;SDS011;11483;55.828;37.488;2023-05-10T15:14:22;8.70;;;2.25;;
22632;SDS011;11483;55.828;37.488;2023-05-10T15:16:48;10.60;;;2.85;;
22632;SDS011;11483;55.828;37.488;2023-05-10T15:19:14;6.35;;;2.05;;
22632;SDS011;11483;55.828;37.488;2023-05-10T15:21:40;5.45;;;2.47;;
22632;SDS011;11483;55.828;37.488;2023-05-10T15:24:08;12.30;;;2.10;;
22632;SDS011;11483;55.828;37.488;2023-05-10T15:26:34;14.32;;;2.47;;
22632;SDS011;11483;55.828;37.488;2023-05-10T15:29:00;4.47;;;2.35;;
22632;SDS011;11483;55.828;37.488;2023-05-10T15:31:26;11.95;;;2.33;;
22632;SDS011;11483;55.828;37.488;2023-05-10T15:33:55;8.25;;;2.70;;
22632;SDS011;11483;55.828;37.488;2023-05-10T15:36:24;10.55;;;2.60;;
22632;SDS011;11483;55.828;37.488;2023-05-10T15:38:50;12.00;;;2.30;;